Time;durP1;ratioP1;P1;durP2;ratioP2;P2;SDS_P1;SDS_P2;PMS_P1;PMS_P2;Temp;Humidity;BMP_temperature;BMP_pressure;BME280_temperature;BME280_humidity;BME280_pressure;Samples;Min_cycle;Max_cycle;Signal;HPM_P1;HPM_P2
2021/08/10 00:00:42;;;;;;;12.50;5.10;;;18.50;99.90;;;18.84;74.25;101366.78;5072683;28;20442;-85
2021/08/10 00:03:10;;;;;;;13.35;6.10;;;18.50;99.90;;;18.86;74.42;101372.97;5072784;28;20072;-85
2021/08/10 00:05:39;;;;;;;15.18;6.20;;;18.50;99.90;;;18.83;74.50;101382.94;5055689;28;20063;-85
2021/08/10 00:08:08;;;;;;;13.30;6.25;;;18.50;99.90;;;18.84;74.63;101385.56;5076342;28;20043;-85
2021/08/10 00:10:36;;;;;;;14.93;6.80;;;18.40;99.90;;;18.76;75.08;101386.69;5076403;28;20062;-86
2021/08/10 00:13:06;;;;;;;18.13;7.07;;;18.40;99.90;;;18.76;75.17;101384.00;5076498;28;20103;-87
2021/08/10 00:15:34;;;;;;;12.95;5.72;;;18.40;99.90;;;18.80;75.27;101383.00;5076302;28;20395;-86
2021/08/10 00:18:03;;;;;;;15.77;6.60;;;18.40;99.90;;;18.78;75.27;101377.69;5058522;28;20414;-86
2021/08/10 00:20:31;;;;;;;16.75;6.18;;;18.40;99.90;;;18.87;75.21;101379.22;5076407;28;20098;-85
2021/08/10 00:23:00;;;;;;;11.15;6.10;;;18.50;99.90;;;18.82;75.50;101387.41;5076162;28;20052;-86
2021/08/10 00:25:29;;;;;;;11.75;5.93;;;18.40;99.90;;;18.80;75.33;101381.22;5076392;28;20239;-87
2021/08/10 00:27:57;;;;;;;11.50;5.68;;;18.50;99.90;;;18.73;75.60;101363.56;5077618;28;20067;-87
2021/08/10 00:30:28;;;;;;;11.15;5.63;;;18.40;99.90;;;18.76;75.52;101363.47;5082279;28;20051;-86
2021/08/10 00:32:57;;;;;;;12.10;5.97;;;18.50;99.90;;;18.86;75.56;101367.63;5080672;28;20040;-87
2021/08/10 00:35:26;;;;;;;14.55;6.15;;;18.50;99.90;;;18.86;75.58;101369.41;5078924;28;20045;-86
2021/08/10 00:37:54;;;;;;;17.60;5.82;;;18.50;99.90;;;18.86;75.54;101369.41;5059372;28;20143;-88
2021/08/10 00:40:25;;;;;;;16.42;6.38;;;18.50;99.90;;;18.88;75.76;101371.13;5059670;28;20120;-87
2021/08/10 00:42:54;;;;;;;14.27;6.60;;;18.50;99.90;;;18.85;75.67;101379.25;5059579;28;20067;-80
2021/08/10 00:45:23;;;;;;;16.05;6.25;;;18.50;99.90;;;18.78;75.77;101352.69;5075818;28;20051;-79
2021/08/10 00:47:54;;;;;;;14.50;6.05;;;18.50;99.90;;;18.76;76.24;101373.28;5057719;28;20049;-79
2021/08/10 00:50:26;;;;;;;12.60;6.05;;;18.40;99.90;;;18.71;76.36;101376.13;5057676;28;20053;-80
2021/08/10 00:52:55;;;;;;;11.70;5.82;;;18.40;99.90;;;18.11;76.54;101268.03;5057602;28;20521;-80
2021/08/10 00:55:25;;;;;;;13.13;5.90;;;18.30;99.90;;;18.65;76.57;101368.28;5057659;28;20529;-80
2021/08/10 00:57:54;;;;;;;14.63;6.47;;;18.30;99.90;;;18.67;76.68;101352.13;5074140;28;20139;-80
2021/08/10 01:00:24;;;;;;;12.20;5.60;;;18.30;99.90;;;18.61;76.92;101358.56;5057432;28;20494;-81
2021/08/10 01:02:54;;;;;;;11.93;5.75;;;18.20;99.90;;;18.62;76.97;101370.16;5057392;28;20130;-81
2021/08/10 01:05:29;;;;;;;10.18;5.57;;;18.30;99.90;;;18.66;76.97;101367.31;5057370;28;20055;-79
2021/08/10 01:08:10;;;;;;;13.13;6.20;;;18.30;99.90;;;18.62;76.85;101346.91;5057257;28;20638;-80
2021/08/10 01:10:46;;;;;;;12.73;5.88;;;18.30;99.90;;;18.63;76.99;101370.13;5057082;28;20052;-80
2021/08/10 01:13:23;;;;;;;15.05;5.72;;;18.20;99.90;;;18.65;77.01;101356.66;5057211;28;20059;-80
2021/08/10 01:16:01;;;;;;;15.40;5.97;;;18.20;99.90;;;18.55;77.20;101371.25;5057277;28;20441;-80
2021/08/10 01:18:36;;;;;;;14.38;6.45;;;18.20;99.90;;;18.58;77.57;101371.19;5056284;28;20049;-80
2021/08/10 01:21:18;;;;;;;18.17;6.68;;;18.20;99.90;;;18.56;77.59;101367.66;5057060;28;20055;-79
2021/08/10 01:24:06;;;;;;;12.93;6.10;;;18.20;99.90;;;18.62;77.46;101367.47;5073864;28;20433;-80
2021/08/10 01:26:52;;;;;;;15.20;7.15;;;18.20;99.90;;;18.45;77.58;101343.84;5074725;28;20058;-79
2021/08/10 01:29:28;;;;;;;13.70;6.80;;;18.20;99.90;;;18.58;77.56;101360.47;5074891;28;20075;-80
2021/08/10 01:32:00;;;;;;;14.40;6.97;;;18.20;99.90;;;18.63;77.60;101364.75;5073281;28;20040;-80
2021/08/10 01:34:37;;;;;;;14.88;6.53;;;18.30;99.90;;;18.63;77.73;101359.41;5073516;28;20072;-80
2021/08/10 01:37:20;;;;;;;13.80;7.22;;;18.20;99.90;;;18.59;78.14;101363.09;5056783;28;20482;-79
2021/08/10 01:39:57;;;;;;;15.15;6.55;;;18.20;99.90;;;18.43;78.33;101339.44;5056438;28;20045;-79
2021/08/10 01:42:35;;;;;;;14.93;6.72;;;18.20;99.90;;;18.53;78.38;101363.25;5056263;28;20072;-79
2021/08/10 01:45:05;;;;;;;13.90;7.07;;;18.10;99.90;;;18.56;78.29;101352.44;5074251;28;20094;-79
2021/08/10 01:47:37;;;;;;;14.02;5.75;;;18.10;99.90;;;18.56;78.28;101359.63;5056526;28;20045;-78
2021/08/10 01:50:09;;;;;;;14.05;6.55;;;18.20;99.90;;;18.38;78.24;101336.00;5073178;28;20048;-79
2021/08/10 01:52:45;;;;;;;14.55;7.00;;;18.20;99.90;;;18.51;78.48;101359.75;5056492;28;20098;-80
2021/08/10 01:55:14;;;;;;;16.80;6.70;;;18.10;99.90;;;18.46;78.66;101363.50;5056368;28;20150;-80
2021/08/10 01:57:45;;;;;;;14.50;6.63;;;18.10;99.90;;;18.52;78.49;101366.00;5056002;28;20072;-79
2021/08/10 02:00:16;;;;;;;13.07;6.60;;;18.10;99.90;;;18.51;78.52;101369.56;5056443;28;20486;-79
2021/08/10 02:02:55;;;;;;;14.55;7.05;;;18.10;99.90;;;18.42;78.64;101365.38;5056312;28;20052;-79
2021/08/10 02:05:42;;;;;;;14.70;7.28;;;18.10;99.90;;;18.47;78.74;101367.91;5056217;28;20052;-81
2021/08/10 02:08:16;;;;;;;15.30;7.40;;;18.10;99.90;;;18.51;78.86;101370.47;5072625;28;20054;-80
2021/08/10 02:10:47;;;;;;;14.18;6.95;;;18.10;99.90;;;18.45;79.06;101367.06;5056087;28;20060;-80
2021/08/10 02:13:16;;;;;;;14.77;6.75;;;18.10;99.90;;;18.53;79.33;101373.09;5072494;28;20045;-80
2021/08/10 02:15:50;;;;;;;13.60;7.22;;;18.10;99.90;;;18.48;79.51;101381.28;5072793;28;20044;-79
2021/08/10 02:18:21;;;;;;;15.98;7.20;;;18.10;99.90;;;18.49;79.75;101380.34;5055996;28;20557;-80
2021/08/10 02:21:26;;;;;;;12.18;6.43;;;18.10;99.90;;;18.46;80.28;101372.41;5072286;28;20048;-79
2021/08/10 02:24:05;;;;;;;16.73;7.38;;;18.10;99.90;;;17.97;80.40;101297.00;5055925;28;20076;-78
2021/08/10 02:26:39;;;;;;;13.65;6.90;;;18.00;99.90;;;18.22;80.57;101353.41;5055905;28;20406;-78
2021/08/10 02:29:10;;;;;;;15.73;6.85;;;17.90;99.90;;;18.32;80.53;101369.19;5055701;28;20071;-79
2021/08/10 02:31:41;;;;;;;14.07;7.25;;;18.00;99.90;;;18.29;80.49;101374.63;5072468;28;20504;-80
2021/08/10 02:34:12;;;;;;;15.13;7.20;;;17.90;99.90;;;17.68;80.89;101271.03;5055856;28;20048;-79
2021/08/10 02:36:41;;;;;;;15.77;7.53;;;17.90;99.90;;;17.84;80.85;101304.50;5055821;28;20041;-79
2021/08/10 02:39:11;;;;;;;14.20;7.45;;;17.90;99.90;;;18.26;80.83;101377.41;5073571;28;20040;-79
2021/08/10 02:41:43;;;;;;;11.75;6.95;;;17.80;99.90;;;18.20;80.69;101355.25;5055473;28;20048;-79
2021/08/10 02:44:12;;;;;;;11.00;6.63;;;17.90;99.90;;;18.22;80.81;101383.75;5055720;28;20493;-79
2021/08/10 02:46:44;;;;;;;16.08;6.78;;;17.80;99.90;;;18.21;80.82;101382.03;5055717;28;20071;-79
2021/08/10 02:49:14;;;;;;;12.48;7.20;;;17.80;99.90;;;18.08;80.65;101348.44;5055379;28;20051;-79
2021/08/10 02:51:44;;;;;;;17.40;7.45;;;17.80;99.90;;;18.29;80.69;101374.63;5055572;28;20102;-79
2021/08/10 02:54:14;;;;;;;18.85;7.53;;;17.90;99.90;;;18.30;80.76;101371.03;5055487;28;20045;-80
2021/08/10 02:56:54;;;;;;;11.23;7.32;;;17.90;99.90;;;18.19;80.77;101366.91;5073419;28;20045;-80
2021/08/10 02:59:30;;;;;;;16.58;7.75;;;17.90;99.90;;;18.21;80.94;101375.78;5055375;28;20052;-79
2021/08/10 03:02:08;;;;;;;17.05;7.22;;;17.80;99.90;;;18.21;81.01;101379.34;5072138;28;20044;-79
2021/08/10 03:04:45;;;;;;;16.35;7.93;;;17.80;99.90;;;17.84;81.30;101339.31;5055182;28;20417;-79
2021/08/10 03:07:13;;;;;;;13.60;7.85;;;17.70;99.90;;;18.15;81.10;101375.94;5073421;28;20047;-79
2021/08/10 03:09:42;;;;;;;15.48;8.57;;;17.80;99.90;;;18.21;80.96;101378.47;5073306;28;20037;-78
2021/08/10 03:12:12;;;;;;;13.23;7.93;;;17.80;99.90;;;17.90;81.21;101368.56;5055362;28;20571;-78
2021/08/10 03:14:42;;;;;;;18.10;8.50;;;17.80;99.90;;;18.10;81.32;101365.34;5055599;28;20052;-81
2021/08/10 03:17:11;;;;;;;16.95;8.68;;;17.80;99.90;;;18.12;81.41;101370.69;5055276;28;20056;-81
2021/08/10 03:19:43;;;;;;;15.70;8.70;;;17.70;99.90;;;18.01;81.56;101366.50;5055391;28;20102;-79
2021/08/10 03:22:13;;;;;;;17.48;7.82;;;17.70;99.90;;;18.07;81.64;101378.84;5054953;28;20048;-80
2021/08/10 03:24:43;;;;;;;17.80;8.23;;;17.70;99.90;;;18.06;81.85;101377.06;5073469;28;20037;-80
2021/08/10 03:27:12;;;;;;;19.95;8.15;;;17.70;99.90;;;17.99;82.16;101380.81;5073607;28;20063;-79
2021/08/10 03:29:42;;;;;;;14.95;8.63;;;17.60;99.90;;;18.00;82.41;101382.59;5054687;28;20037;-80
2021/08/10 03:32:14;;;;;;;16.08;7.68;;;17.60;99.90;;;18.05;82.40;101380.66;5073169;28;20094;-79
2021/08/10 03:34:46;;;;;;;15.18;8.68;;;17.60;99.90;;;17.79;82.46;101349.22;5055217;28;20119;-79
2021/08/10 03:37:17;;;;;;;18.17;9.00;;;17.60;99.90;;;18.02;82.73;101389.66;5055168;28;20049;-79
2021/08/10 03:39:46;;;;;;;14.27;8.75;;;17.60;99.90;;;18.02;82.72;101388.81;5054971;28;20557;-79
2021/08/10 03:42:15;;;;;;;16.27;8.88;;;17.60;99.90;;;18.03;82.70;101390.53;5076567;28;20078;-78
2021/08/10 03:44:45;;;;;;;;;;;17.60;99.90;;;18.03;82.71;101379.84;5059695;28;20083;-79
2021/08/10 03:47:16;;;;;;;19.83;9.52;;;17.70;99.90;;;18.06;82.73;101386.91;5075475;28;19920;-79
2021/08/10 03:49:49;;;;;;;17.52;8.20;;;17.70;99.90;;;17.97;82.80;101388.03;5076774;28;20052;-78
2021/08/10 03:52:17;;;;;;;19.70;9.57;;;17.60;99.90;;;17.81;82.93;101354.53;5076690;28;20114;-78
2021/08/10 03:54:47;;;;;;;20.25;8.85;;;17.60;99.90;;;17.97;82.95;101388.03;5058785;28;20068;-79
2021/08/10 03:57:18;;;;;;;;;;;17.60;99.90;;;17.85;83.02;101385.66;5075889;28;20056;-79
2021/08/10 03:59:49;;;;;;;15.30;8.93;;;17.60;99.90;;;17.92;83.11;101387.28;5076615;28;20393;-80
2021/08/10 04:02:18;;;;;;;17.52;8.02;;;17.60;99.90;;;17.86;82.99;101368.69;5058631;28;20044;-79
2021/08/10 04:04:53;;;;;;;16.98;8.85;;;17.60;99.90;;;17.96;82.74;101386.28;5058596;28;20049;-80
2021/08/10 04:07:26;;;;;;;16.65;9.05;;;17.60;99.90;;;17.93;82.73;101386.34;5058531;28;20056;-79
2021/08/10 04:09:56;;;;;;;17.98;8.45;;;17.60;99.90;;;17.92;83.12;101389.94;5058311;28;20049;-75
2021/08/10 04:12:25;;;;;;;21.63;9.65;;;17.60;99.90;;;17.91;82.99;101374.78;5076478;28;20040;-73
2021/08/10 04:14:53;;;;;;;18.70;8.95;;;17.60;99.90;;;17.90;83.22;101381.09;5058250;28;20045;-74
2021/08/10 04:17:25;;;;;;;;;;;17.60;99.90;;;17.84;83.33;101387.47;5075490;28;20044;-76
2021/08/10 04:19:56;;;;;;;18.20;9.60;;;17.50;99.90;;;17.84;83.31;101384.81;5074988;28;19973;-75
2021/08/10 04:22:25;;;;;;;22.70;10.45;;;17.50;99.90;;;17.84;83.55;101386.59;5058264;28;20482;-73
2021/08/10 04:24:54;;;;;;;15.95;9.10;;;17.50;99.90;;;17.79;83.34;101377.78;5058396;28;20439;-75
2021/08/10 04:27:22;;;;;;;17.42;11.15;;;17.50;99.90;;;17.63;83.51;101366.63;5076024;28;20063;-75
2021/08/10 04:29:55;;;;;;;18.42;10.05;;;17.50;99.90;;;17.79;83.62;101399.19;5074685;28;20094;-75
2021/08/10 04:32:26;;;;;;;;;;;17.40;99.90;;;17.61;83.64;101375.59;5058137;28;20068;-75
2021/08/10 04:34:58;;;;;;;19.42;9.95;;;17.40;99.90;;;17.82;83.75;101404.47;5074670;28;20023;-74
2021/08/10 04:37:27;;;;;;;23.48;10.15;;;17.40;99.90;;;17.81;83.73;101400.91;5075938;28;20132;-76
2021/08/10 04:39:57;;;;;;;15.13;9.48;;;17.40;99.90;;;17.80;83.75;101395.63;5057772;28;20041;-76
2021/08/10 04:42:44;;;;;;;23.33;11.15;;;17.40;99.90;;;17.67;83.75;101370.09;5075846;28;20406;-75
2021/08/10 04:45:13;;;;;;;16.88;9.70;;;17.40;99.90;;;17.78;83.87;101390.31;5057811;28;20048;-76
2021/08/10 04:47:42;;;;;;;18.27;9.68;;;17.40;99.90;;;17.86;83.86;101385.66;5057667;28;20055;-75
2021/08/10 04:50:13;;;;;;;18.30;9.27;;;17.40;99.90;;;17.90;83.49;101398.00;5057445;28;20083;-75
2021/08/10 04:52:42;;;;;;;21.75;10.40;;;17.50;99.90;;;17.90;83.84;101399.81;5056373;28;20501;-76
2021/08/10 04:55:11;;;;;;;21.60;9.32;;;17.60;99.90;;;17.82;83.61;101370.59;5057471;28;20513;-75
2021/08/10 04:57:41;;;;;;;23.85;9.82;;;17.60;99.90;;;18.01;83.68;101405.75;5057557;28;20049;-75
2021/08/10 05:00:10;;;;;;;20.70;10.43;;;17.60;99.90;;;18.05;83.61;101396.72;5057422;28;20051;-76
2021/08/10 05:02:42;;;;;;;15.68;9.68;;;17.70;99.90;;;18.11;83.44;101407.28;5074201;28;20076;-75
2021/08/10 05:05:13;;;;;;;19.60;10.83;;;17.70;99.90;;;18.02;83.76;101407.53;5057385;28;20143;-75
2021/08/10 05:07:42;;;;;;;;;;;17.70;99.90;;;18.02;83.93;101397.69;5074219;28;20806;-76
2021/08/10 05:10:14;;;;;;;22.55;9.95;;;17.70;99.90;;;18.13;83.94;101416.16;5073858;28;20320;-75
2021/08/10 05:12:43;;;;;;;18.65;9.73;;;17.70;99.90;;;18.20;83.70;101409.72;5057278;28;20049;-76
2021/08/10 05:15:14;;;;;;;21.13;10.50;;;17.80;99.90;;;18.24;83.61;101407.81;5057221;28;20061;-76
2021/08/10 05:17:43;;;;;;;21.08;10.48;;;17.80;99.90;;;17.98;83.41;101368.38;5075076;28;20132;-76
2021/08/10 05:20:14;;;;;;;17.92;10.13;;;17.80;99.90;;;18.32;83.45;101414.75;5073793;28;20409;-76
2021/08/10 05:22:43;;;;;;;17.08;9.68;;;17.90;99.90;;;18.36;82.91;101408.38;5073822;28;20048;-75
2021/08/10 05:25:12;;;;;;;14.50;9.00;;;17.90;99.90;;;18.35;82.90;101406.59;5057445;28;20478;-78
2021/08/10 05:27:41;;;;;;;18.23;9.50;;;18.00;99.90;;;18.39;82.99;101408.28;5074315;28;20047;-78
2021/08/10 05:30:14;;;;;;;18.85;10.05;;;18.00;99.90;;;18.53;82.78;101410.59;5056909;28;20091;-68
2021/08/10 05:32:43;;;;;;;19.40;10.48;;;18.10;99.90;;;18.49;83.03;101407.13;5075231;28;20148;-68
2021/08/10 05:35:29;;;;;;;19.23;9.85;;;18.20;99.90;;;18.58;82.66;101406.88;5056966;28;20121;-68
2021/08/10 05:37:57;;;;;;;21.08;9.82;;;18.20;99.90;;;18.57;82.79;101423.00;5056771;28;20098;-68
2021/08/10 05:40:26;;;;;;;20.63;9.45;;;18.20;99.90;;;18.60;82.86;101433.66;5056005;28;20049;-68
2021/08/10 05:42:57;;;;;;;22.75;10.43;;;18.20;99.90;;;18.57;83.24;101425.69;5056606;28;20055;-69
2021/08/10 05:45:26;;;;;;;18.00;9.38;;;18.20;99.90;;;18.56;83.42;101427.47;5056843;28;20063;-67
2021/08/10 05:47:55;;;;;;;18.00;9.45;;;18.20;99.90;;;18.55;83.42;101425.72;5074745;28;20045;-69
2021/08/10 05:50:24;;;;;;;18.15;9.52;;;18.20;99.90;;;18.63;83.70;101417.47;5056382;28;20044;-67
2021/08/10 05:52:55;;;;;;;19.85;10.23;;;18.20;99.90;;;18.46;83.05;101377.78;5056734;28;20056;-70
2021/08/10 05:55:26;;;;;;;23.38;10.23;;;18.30;99.90;;;18.78;83.29;101422.38;5056498;28;20422;-69
2021/08/10 05:57:55;;;;;;;25.15;10.23;;;18.40;99.90;;;18.72;83.28;101423.44;5073107;28;20379;-68
2021/08/10 06:00:25;;;;;;;17.27;10.60;;;18.40;99.90;;;18.80;83.43;101432.13;5074254;28;20140;-68
2021/08/10 06:02:59;;;;;;;19.67;10.68;;;18.40;99.90;;;18.86;83.17;101429.28;5056147;28;20460;-69
2021/08/10 06:05:30;;;;;;;21.25;10.57;;;18.50;99.90;;;18.76;83.64;101413.50;5056202;28;20087;-69
2021/08/10 06:08:00;;;;;;;18.85;10.98;;;18.50;99.90;;;18.78;83.61;101431.31;5074023;28;20160;-69
2021/08/10 06:10:39;;;;;;;14.60;10.30;;;18.50;99.90;;;18.78;84.07;101422.38;5055944;28;20475;-69
2021/08/10 06:13:07;;;;;;;20.75;11.40;;;18.40;99.90;;;18.66;84.14;101420.94;5073932;28;20052;-69
2021/08/10 06:15:39;;;;;;;20.88;10.93;;;18.30;99.90;;;18.53;84.57;101422.22;5055809;28;20051;-68
2021/08/10 06:18:09;;;;;;;17.75;10.52;;;18.30;99.90;;;18.49;85.17;101431.25;5055781;28;20062;-68
2021/08/10 06:20:37;;;;;;;18.60;10.50;;;18.10;99.90;;;18.45;85.54;101437.63;5055972;28;20493;-69
2021/08/10 06:23:08;;;;;;;19.60;11.27;;;18.10;99.90;;;18.55;85.72;101436.44;5055880;28;20066;-69
2021/08/10 06:25:45;;;;;;;19.30;11.43;;;18.10;99.90;;;18.52;86.07;101431.19;5056179;28;20383;-68
2021/08/10 06:28:17;;;;;;;20.60;11.57;;;18.10;99.90;;;18.46;86.15;101427.78;5055856;28;20444;-69
2021/08/10 06:30:47;;;;;;;16.30;10.45;;;18.10;99.90;;;18.40;85.97;101418.09;5055703;28;20051;-68
2021/08/10 06:33:16;;;;;;;25.08;11.30;;;18.10;99.90;;;18.50;85.97;101434.81;5056012;28;20052;-70
2021/08/10 06:35:47;;;;;;;21.00;10.25;;;18.10;99.90;;;18.44;85.97;101432.31;5055859;28;20045;-69
2021/08/10 06:38:18;;;;;;;19.80;10.55;;;18.10;99.90;;;16.66;85.51;101122.22;5055577;28;20053;-68
2021/08/10 06:40:47;;;;;;;17.55;10.13;;;18.10;99.90;;;18.43;85.80;101415.34;5055431;28;20060;-69
2021/08/10 06:43:16;;;;;;;16.33;9.40;;;18.10;99.90;;;18.56;85.79;101421.25;5055439;28;20113;-68
2021/08/10 06:45:45;;;;;;;21.27;9.80;;;18.10;99.90;;;18.47;85.49;101417.03;5072736;28;20397;-68
2021/08/10 06:48:15;;;;;;;15.68;9.68;;;18.10;99.90;;;18.59;85.71;101422.03;5055843;28;20048;-69
2021/08/10 06:50:43;;;;;;;18.30;10.50;;;18.20;99.90;;;18.60;85.56;101422.94;5072451;28;20048;-68
2021/08/10 06:53:14;;;;;;;18.27;10.38;;;18.20;99.90;;;18.60;85.57;101418.41;5073683;28;20513;-69
2021/08/10 06:55:50;;;;;;;19.27;9.80;;;18.20;99.90;;;18.57;85.56;101415.84;5055933;28;20052;-69
2021/08/10 06:58:21;;;;;;;18.27;10.00;;;18.20;99.90;;;18.48;85.84;101407.19;5055541;28;20048;-69
2021/08/10 07:00:50;;;;;;;16.13;9.40;;;18.20;99.90;;;17.99;85.91;101311.22;5055475;28;20068;-70
2021/08/10 07:03:19;;;;;;;16.45;9.35;;;18.20;99.90;;;18.02;85.92;101320.03;5073499;28;20045;-68
2021/08/10 07:05:48;;;;;;;16.33;9.52;;;18.30;99.90;;;18.65;85.68;101426.34;5055403;28;20140;-69
2021/08/10 07:08:17;;;;;;;17.00;8.90;;;18.30;99.90;;;18.56;85.76;101405.19;5055164;28;20075;-68
2021/08/10 07:10:46;;;;;;;18.00;9.15;;;18.30;99.90;;;18.54;85.89;101399.84;5073232;28;20101;-69
2021/08/10 07:13:16;;;;;;;16.10;8.57;;;18.40;99.90;;;18.84;86.12;101430.25;5073186;28;20127;-68
2021/08/10 07:15:45;;;;;;;17.08;9.88;;;18.50;99.90;;;18.91;86.44;101430.00;5056420;28;20052;-68
2021/08/10 07:18:17;;;;;;;17.50;9.07;;;18.60;99.90;;;18.95;86.13;101424.56;5059479;28;20066;-68
2021/08/10 07:20:46;;;;;;;21.30;9.32;;;18.60;99.90;;;18.92;86.45;101402.28;5059501;28;20044;-68
2021/08/10 07:23:20;;;;;;;21.05;8.77;;;18.60;99.90;;;19.08;86.33;101426.84;5059441;28;20049;-67
2021/08/10 07:25:51;;;;;;;15.52;7.93;;;18.70;99.90;;;19.07;85.89;101432.22;5059310;28;20048;-71
2021/08/10 07:28:30;;;;;;;14.82;7.88;;;18.80;99.90;;;19.22;86.33;101445.19;5059213;28;20052;-70
2021/08/10 07:31:02;;;;;;;21.02;8.35;;;18.80;99.90;;;18.83;86.11;101351.59;5059149;28;20049;-70
2021/08/10 07:33:32;;;;;;;14.73;7.57;;;19.00;99.90;;;19.56;85.32;101440.56;5059184;28;20048;-71
2021/08/10 07:36:02;;;;;;;13.38;7.15;;;19.20;99.90;;;19.58;84.21;101441.38;5076874;28;20051;-71
2021/08/10 07:38:30;;;;;;;14.25;7.63;;;19.30;99.90;;;19.56;83.01;101437.88;5058859;28;20076;-71
2021/08/10 07:40:59;;;;;;;19.10;9.13;;;19.30;99.90;;;19.49;82.56;101447.91;5055576;28;20561;-68
2021/08/10 07:43:30;;;;;;;13.75;8.38;;;19.10;99.90;;;19.55;83.29;101446.88;5055675;28;20052;-68
2021/08/10 07:45:59;;;;;;;14.73;8.90;;;19.20;99.90;;;19.43;83.26;101442.78;5055617;28;20047;-68
2021/08/10 07:48:27;;;;;;;17.42;8.77;;;19.10;99.90;;;18.98;83.09;101361.00;5055681;28;20346;-68
2021/08/10 07:50:56;;;;;;;16.92;9.13;;;19.10;99.90;;;19.43;83.38;101445.44;5055445;28;20056;-68
2021/08/10 07:53:27;;;;;;;15.05;8.60;;;19.10;99.90;;;18.99;83.10;101404.78;5072007;28;20499;-68
2021/08/10 07:55:57;;;;;;;15.85;9.18;;;19.00;99.90;;;19.29;83.30;101449.44;5055449;28;20482;-68
2021/08/10 07:58:25;;;;;;;17.08;10.18;;;19.00;99.90;;;19.23;83.04;101453.19;5055358;28;20054;-70
2021/08/10 08:00:55;;;;;;;14.27;9.10;;;19.00;99.90;;;19.40;83.33;101455.38;5072001;28;20457;-73
2021/08/10 08:03:24;;;;;;;14.90;9.73;;;19.00;99.90;;;19.55;83.31;101454.91;5055269;28;20493;-68
2021/08/10 08:05:53;;;;;;;12.27;8.63;;;19.10;99.90;;;19.50;83.23;101452.38;5055198;28;20046;-68
2021/08/10 08:08:25;;;;;;;12.85;8.82;;;19.10;99.90;;;19.53;83.27;101460.31;5055372;28;20067;-74
2021/08/10 08:10:54;;;;;;;16.10;8.45;;;19.20;99.90;;;19.43;83.04;101444.56;5055343;28;20053;-75
2021/08/10 08:13:29;;;;;;;15.73;8.88;;;19.10;99.90;;;19.49;82.94;101460.47;5055329;28;20509;-74
2021/08/10 08:16:01;;;;;;;10.88;8.10;;;19.10;99.90;;;19.48;83.10;101456.03;5056725;28;20422;-74
2021/08/10 08:18:30;;;;;;;12.45;8.00;;;19.10;99.90;;;19.53;83.35;101456.78;5071955;28;20144;-74
2021/08/10 08:20:59;;;;;;;13.13;8.10;;;19.10;99.90;;;19.50;83.87;101456.84;5056190;28;20434;-74
2021/08/10 08:23:32;;;;;;;15.15;8.63;;;19.10;99.90;;;19.48;84.80;101464.06;5071914;28;20057;-74
2021/08/10 08:26:05;;;;;;;11.77;7.63;;;19.10;99.90;;;19.23;84.11;101409.38;5055075;28;20087;-74
2021/08/10 08:28:36;;;;;;;13.43;7.63;;;19.10;99.90;;;19.50;84.37;101463.09;5055297;28;20045;-74
2021/08/10 08:31:06;;;;;;;12.75;6.97;;;19.10;99.90;;;19.52;83.79;101463.06;5055095;28;20404;-74
2021/08/10 08:33:34;;;;;;;12.93;7.10;;;19.20;99.90;;;19.57;83.82;101453.91;5054796;28;20045;-74
2021/08/10 08:36:03;;;;;;;13.00;6.47;;;19.20;99.90;;;19.64;83.50;101460.88;5054641;28;20043;-74
2021/08/10 08:38:32;;;;;;;13.85;6.25;;;19.30;99.90;;;19.52;83.54;101460.38;5055900;28;20041;-74
2021/08/10 08:41:06;;;;;;;13.05;6.80;;;19.20;99.90;;;19.58;83.49;101470.91;5054279;28;20056;-74
2021/08/10 08:43:34;;;;;;;10.97;6.53;;;19.20;99.90;;;19.85;84.11;101470.03;5054554;28;20061;-74
2021/08/10 08:46:06;;;;;;;10.20;6.35;;;19.40;99.90;;;19.88;83.60;101452.94;5054409;28;20068;-74
2021/08/10 08:48:37;;;;;;;17.17;7.03;;;19.60;99.90;;;20.05;82.74;101478.31;5054002;28;20045;-74
2021/08/10 08:51:12;;;;;;;12.50;6.25;;;19.70;99.90;;;20.25;82.26;101477.63;5054309;28;20504;-74
2021/08/10 08:53:51;;;;;;;12.20;6.68;;;19.80;99.90;;;20.26;81.13;101479.41;5054403;28;20079;-74
2021/08/10 08:56:21;;;;;;;11.75;6.75;;;19.80;99.90;;;20.23;80.71;101466.94;5054503;28;20056;-74
2021/08/10 08:58:52;;;;;;;14.13;6.93;;;19.90;99.90;;;19.74;80.29;101397.00;5054211;28;20129;-74
2021/08/10 09:01:22;;;;;;;11.77;6.82;;;19.90;99.90;;;20.27;80.47;101487.41;5053941;28;20053;-74
2021/08/10 09:03:52;;;;;;;11.25;6.43;;;19.90;99.90;;;20.26;80.04;101480.28;5055528;28;20064;-74
2021/08/10 09:06:21;;;;;;;16.48;6.95;;;19.90;99.90;;;20.26;80.06;101491.03;5055013;28;20037;-74
2021/08/10 09:08:53;;;;;;;10.05;6.40;;;19.90;99.90;;;20.38;80.41;101487.91;5070517;28;20052;-74
2021/08/10 09:11:25;;;;;;;11.75;7.72;;;20.00;99.90;;;20.16;80.14;101451.06;5053954;28;20479;-74
2021/08/10 09:13:58;;;;;;;18.80;8.82;;;20.10;99.90;;;20.21;79.84;101451.84;5055111;28;20045;-74
2021/08/10 09:16:32;;;;;;;17.55;6.82;;;20.10;99.90;;;19.18;79.00;101232.50;5054263;28;20059;-74
2021/08/10 09:19:02;;;;;;;13.27;7.70;;;20.20;99.90;;;20.76;78.52;101496.44;5053862;28;20045;-74
2021/08/10 09:21:33;;;;;;;14.27;8.07;;;20.30;99.90;;;20.77;77.14;101504.44;5053496;28;20071;-74
2021/08/10 09:24:13;;;;;;;15.88;8.35;;;20.40;99.90;;;20.89;76.88;101489.66;5053868;28;20449;-74
2021/08/10 09:26:43;;;;;;;15.68;8.52;;;20.50;99.90;;;21.09;76.49;101471.00;5053805;28;20053;-74
2021/08/10 09:29:19;;;;;;;14.40;8.13;;;20.80;99.90;;;21.51;76.05;101488.19;5053985;28;20060;-74
2021/08/10 09:31:53;;;;;;;17.25;8.38;;;21.10;99.90;;;21.46;75.02;101453.38;5054535;28;20613;-74
2021/08/10 09:34:27;;;;;;;17.17;7.68;;;21.40;99.90;;;21.48;71.95;101464.09;5053235;28;20049;-74
2021/08/10 09:36:58;;;;;;;15.18;7.10;;;21.40;99.90;;;21.61;72.77;101473.41;5053723;28;20131;-75
2021/08/10 09:39:36;;;;;;;13.80;7.32;;;21.50;99.90;;;21.91;71.79;101498.28;5069074;28;20052;-74
2021/08/10 09:42:10;;;;;;;11.30;6.47;;;21.60;99.90;;;22.17;71.47;101489.97;5052958;28;20507;-75
2021/08/10 09:45:02;;;;;;;12.20;6.28;;;21.90;99.90;;;22.59;71.88;101504.34;5053357;28;20045;-74
2021/08/10 09:47:39;;;;;;;18.88;7.03;;;22.20;99.90;;;22.68;71.42;101492.28;5053682;28;20083;-74
2021/08/10 09:50:17;;;;;;;15.38;7.05;;;22.40;99.90;;;22.70;69.09;101503.88;5053268;28;20052;-74
2021/08/10 09:52:46;;;;;;;12.73;6.97;;;22.50;99.90;;;22.62;69.12;101461.06;5053148;28;20090;-74
2021/08/10 09:55:17;;;;;;;13.93;7.25;;;22.70;99.90;;;23.02;67.45;101504.19;5054444;28;20059;-74
2021/08/10 09:58:02;;;;;;;13.85;6.72;;;22.70;99.90;;;23.17;68.60;101511.56;5054357;28;20113;-75
2021/08/10 10:00:42;;;;;;;15.90;6.75;;;22.90;99.90;;;23.35;66.60;101504.47;5053388;28;20394;-75
2021/08/10 10:03:17;;;;;;;;;;;23.20;99.90;;;23.16;64.20;101446.84;5053482;28;20056;-75
2021/08/10 10:05:50;;;;;;;11.68;5.53;;;23.30;99.90;;;23.33;65.22;101468.56;5053038;28;19920;-75
2021/08/10 10:08:21;;;;;;;14.07;6.43;;;23.40;99.90;;;23.91;64.36;101526.06;5069304;28;20044;-75
2021/08/10 10:10:52;;;;;;;14.27;5.10;;;23.60;99.90;;;24.01;62.58;101527.38;5054100;28;20037;-75
2021/08/10 10:13:23;;;;;;;11.32;5.45;;;23.70;99.90;;;24.00;61.62;101521.06;5052799;28;20045;-75
2021/08/10 10:15:52;;;;;;;12.43;6.32;;;23.70;99.90;;;24.28;62.92;101520.63;5053867;28;20073;-75
2021/08/10 10:18:25;;;;;;;11.88;5.75;;;24.00;99.90;;;24.39;60.67;101529.06;5052675;28;20728;-75
2021/08/10 10:20:54;;;;;;;12.35;5.63;;;24.10;99.90;;;24.49;60.59;101524.03;5053719;28;20049;-75
2021/08/10 10:23:26;;;;;;;12.77;5.65;;;24.20;99.90;;;24.25;59.27;101525.31;5052552;28;20057;-75